Time;durP1;ratioP1;P1;durP2;ratioP2;P2;SDS_P1;SDS_P2;PMS_P1;PMS_P2;Temp;Humidity;BMP_temperature;BMP_pressure;BME280_temperature;BME280_humidity;BME280_pressure;Samples;Min_cycle;Max_cycle;Signal;HPM_P1;HPM_P2
2022/06/07 00:00:06;;;;;;;2.05;1.85;;;13.00;99.90;;;;;;5116659;28;20284;-59
2022/06/07 00:02:33;;;;;;;2.35;1.55;;;13.00;99.90;;;;;;5117827;28;20626;-59
2022/06/07 00:04:59;;;;;;;1.58;1.48;;;12.90;99.90;;;;;;5117707;28;20173;-59
2022/06/07 00:07:26;;;;;;;2.05;1.80;;;12.90;99.90;;;;;;5117584;28;20284;-59
2022/06/07 00:09:52;;;;;;;1.55;1.40;;;12.90;99.90;;;;;;5116361;28;20204;-60
2022/06/07 00:12:18;;;;;;;1.50;1.40;;;12.90;99.90;;;;;;5117413;28;20173;-59
2022/06/07 00:14:45;;;;;;;1.70;1.60;;;12.90;99.90;;;;;;5116538;28;20691;-59
2022/06/07 00:17:12;;;;;;;1.60;1.50;;;12.90;99.90;;;;;;5117491;28;20177;-59
2022/06/07 00:19:38;;;;;;;1.40;1.30;;;13.00;99.90;;;;;;5117288;28;20255;-59
2022/06/07 00:22:04;;;;;;;1.52;1.42;;;13.00;99.90;;;;;;5117324;28;20174;-60
2022/06/07 00:24:30;;;;;;;1.60;1.50;;;13.00;99.90;;;;;;5117457;28;20170;-59
2022/06/07 00:26:56;;;;;;;2.22;1.60;;;12.90;99.90;;;;;;5117110;28;20205;-59
2022/06/07 00:29:24;;;;;;;2.28;1.70;;;12.90;99.90;;;;;;5117365;28;20215;-59
2022/06/07 00:31:50;;;;;;;1.63;1.48;;;12.90;99.90;;;;;;5117489;28;20529;-59
2022/06/07 00:34:16;;;;;;;1.65;1.52;;;12.90;99.90;;;;;;5117129;28;20181;-60
2022/06/07 00:36:42;;;;;;;1.63;1.52;;;12.90;99.90;;;;;;5117408;28;20177;-59
2022/06/07 00:39:07;;;;;;;2.95;1.67;;;12.90;99.90;;;;;;5116897;28;20169;-59
2022/06/07 00:41:33;;;;;;;1.92;1.70;;;12.90;99.90;;;;;;5116918;28;20533;-59
2022/06/07 00:44:17;;;;;;;1.67;1.50;;;12.90;99.90;;;;;;5117146;28;20169;-59
2022/06/07 00:46:47;;;;;;;2.20;1.45;;;12.90;99.90;;;;;;5116911;27;20173;-60
2022/06/07 00:49:15;;;;;;;1.67;1.50;;;12.90;99.90;;;;;;5116800;28;20169;-59
2022/06/07 00:51:41;;;;;;;2.85;1.30;;;12.90;99.90;;;;;;5116643;28;20202;-60
2022/06/07 00:54:07;;;;;;;2.17;1.45;;;13.00;99.90;;;;;;5116649;28;20622;-59
2022/06/07 00:56:33;;;;;;;1.50;1.30;;;12.90;99.90;;;;;;5116808;28;20181;-59
2022/06/07 00:59:03;;;;;;;2.15;1.73;;;12.90;99.90;;;;;;5116504;28;20222;-59
2022/06/07 01:01:30;;;;;;;1.90;1.17;;;12.90;99.90;;;;;;5116601;28;20223;-59
2022/06/07 01:03:55;;;;;;;1.52;1.42;;;12.90;99.90;;;;;;5115172;28;20631;-59
2022/06/07 01:11:49;;;;;;;2.55;1.45;;;12.90;99.90;;;;;;5116772;28;20307;-59
2022/06/07 01:14:16;;;;;;;1.58;1.48;;;12.90;99.90;;;;;;5116157;28;20197;-59
2022/06/07 01:16:42;;;;;;;1.60;1.40;;;12.90;99.90;;;;;;5115054;28;20219;-59
2022/06/07 01:19:08;;;;;;;2.00;1.40;;;12.80;99.90;;;;;;5098138;28;20189;-59
2022/06/07 01:21:36;;;;;;;1.90;1.30;;;12.80;99.90;;;;;;5116320;28;20173;-59
2022/06/07 01:24:04;;;;;;;2.10;1.83;;;12.80;99.90;;;;;;5116156;28;20175;-59
2022/06/07 01:26:29;;;;;;;1.60;1.50;;;12.90;99.90;;;;;;5114969;28;20234;-59
2022/06/07 01:28:55;;;;;;;1.60;1.50;;;12.90;99.90;;;;;;5116298;28;20171;-59
2022/06/07 01:31:21;;;;;;;1.85;1.42;;;12.80;99.90;;;;;;5115882;28;20634;-59
2022/06/07 01:33:47;;;;;;;1.48;1.27;;;12.80;99.90;;;;;;5116071;28;20209;-59
2022/06/07 01:36:16;;;;;;;1.65;1.50;;;12.80;99.90;;;;;;5115970;28;20207;-59
2022/06/07 01:38:44;;;;;;;1.92;1.50;;;12.70;99.90;;;;;;5115897;28;20173;-60
2022/06/07 01:43:56;;;;;;;3.40;1.50;;;12.60;99.90;;;;;;5115961;28;20245;-60
2022/06/07 01:46:22;;;;;;;2.25;1.40;;;12.50;99.90;;;;;;5116189;28;20260;-59
2022/06/07 01:48:48;;;;;;;1.55;1.38;;;12.50;99.90;;;;;;5097522;28;20177;-59
2022/06/07 01:51:14;;;;;;;1.63;1.30;;;12.50;99.90;;;;;;5115721;28;20535;-59
2022/06/07 01:53:41;;;;;;;1.85;1.52;;;12.50;99.90;;;;;;5114422;28;20170;-60
2022/06/07 01:56:12;;;;;;;1.50;1.40;;;12.50;99.90;;;;;;5115493;28;20170;-60
2022/06/07 01:58:41;;;;;;;1.88;1.67;;;12.50;99.90;;;;;;5115706;28;20158;-59
2022/06/07 02:01:07;;;;;;;2.13;1.75;;;12.50;99.90;;;;;;5114231;28;20209;-60
2022/06/07 02:03:33;;;;;;;2.38;1.58;;;12.50;99.90;;;;;;5115717;28;20173;-60
2022/06/07 02:06:02;;;;;;;1.98;1.75;;;12.50;99.90;;;;;;5115392;28;20684;-59
2022/06/07 02:08:28;;;;;;;1.60;1.40;;;12.60;99.90;;;;;;5115183;28;20211;-60
2022/06/07 02:10:55;;;;;;;1.52;1.40;;;12.50;99.90;;;;;;5115109;28;20204;-60
2022/06/07 02:13:22;;;;;;;1.42;1.33;;;12.40;99.90;;;;;;5114055;28;20201;-59
2022/06/07 02:15:48;;;;;;;1.90;1.67;;;12.40;99.90;;;;;;5113424;28;20185;-59
2022/06/07 02:18:15;;;;;;;1.95;1.75;;;12.40;99.90;;;;;;5115031;28;20184;-59
2022/06/07 02:20:42;;;;;;;1.95;1.75;;;12.30;99.90;;;;;;5115042;28;20232;-59
2022/06/07 02:23:08;;;;;;;1.63;1.45;;;12.30;99.90;;;;;;5114004;28;20216;-59
2022/06/07 02:25:42;;;;;;;1.70;1.60;;;12.30;99.90;;;;;;5114873;28;20694;-59
2022/06/07 02:28:12;;;;;;;2.00;1.52;;;12.40;99.90;;;;;;5114786;28;20169;-60
2022/06/07 02:30:40;;;;;;;1.60;1.42;;;12.40;99.90;;;;;;5113753;28;20200;-59
2022/06/07 02:33:08;;;;;;;1.65;1.50;;;12.20;99.90;;;;;;5114769;28;20175;-60
2022/06/07 02:35:33;;;;;;;1.58;1.48;;;12.20;99.90;;;;;;5114532;28;20181;-59
2022/06/07 02:37:59;;;;;;;2.00;1.80;;;12.30;99.90;;;;;;5114554;28;20169;-60
2022/06/07 02:40:25;;;;;;;2.15;1.80;;;12.30;99.90;;;;;;5114503;28;20204;-59
2022/06/07 02:42:50;;;;;;;1.83;1.73;;;12.20;99.90;;;;;;5114714;28;20185;-62
2022/06/07 02:45:16;;;;;;;1.92;1.70;;;12.20;99.90;;;;;;5113520;28;20177;-60
2022/06/07 02:47:43;;;;;;;2.08;1.73;;;12.20;99.90;;;;;;5114532;28;20530;-59
2022/06/07 02:50:10;;;;;;;2.10;1.83;;;12.10;99.90;;;;;;5114358;28;20185;-59
2022/06/07 02:52:35;;;;;;;2.50;2.10;;;12.10;99.90;;;;;;5113180;28;20165;-59
2022/06/07 02:55:02;;;;;;;2.50;1.70;;;12.10;99.90;;;;;;5114566;27;20173;-59
2022/06/07 02:57:28;;;;;;;2.50;1.98;;;12.10;99.90;;;;;;5113374;28;20226;-60
2022/06/07 02:59:54;;;;;;;2.65;1.65;;;12.10;99.90;;;;;;5113101;28;20209;-60
2022/06/07 03:02:20;;;;;;;1.83;1.73;;;12.10;99.90;;;;;;5114343;28;20196;-59
2022/06/07 03:04:46;;;;;;;2.50;1.98;;;12.00;99.90;;;;;;5112961;28;20179;-59
2022/06/07 03:07:12;;;;;;;2.00;1.80;;;12.00;99.90;;;;;;5114354;28;20219;-59
2022/06/07 03:09:38;;;;;;;1.80;1.70;;;12.00;99.90;;;;;;5113042;28;20177;-59
2022/06/07 03:12:04;;;;;;;2.00;1.90;;;12.10;99.90;;;;;;5114244;28;20546;-60
2022/06/07 03:14:30;;;;;;;1.95;1.75;;;12.20;99.90;;;;;;5113981;28;20539;-59
2022/06/07 03:16:56;;;;;;;2.03;1.67;;;12.10;99.90;;;;;;5112769;28;20303;-59
2022/06/07 03:19:22;;;;;;;2.17;1.73;;;12.20;99.90;;;;;;5112673;28;20353;-59
2022/06/07 03:21:47;;;;;;;2.38;1.92;;;12.20;99.90;;;;;;5113834;28;20256;-59
2022/06/07 03:24:13;;;;;;;1.70;1.60;;;12.10;99.90;;;;;;5114050;28;20651;-59
2022/06/07 03:26:38;;;;;;;1.85;1.67;;;12.20;99.90;;;;;;5113041;28;20169;-60
2022/06/07 03:29:04;;;;;;;1.70;1.52;;;12.20;99.90;;;;;;5113873;28;20177;-60
2022/06/07 03:31:30;;;;;;;2.03;1.60;;;12.20;99.90;;;;;;5112641;28;20211;-59
2022/06/07 03:33:56;;;;;;;2.55;2.08;;;12.20;99.90;;;;;;5112391;28;20181;-59
2022/06/07 03:36:25;;;;;;;3.58;1.92;;;12.30;99.90;;;;;;5112387;28;20237;-59
2022/06/07 03:38:52;;;;;;;2.17;1.80;;;12.20;99.90;;;;;;5113653;28;20640;-60
2022/06/07 03:41:23;;;;;;;2.45;1.90;;;12.20;99.90;;;;;;5113680;28;20295;-59
2022/06/07 03:43:50;;;;;;;2.58;1.85;;;12.10;99.90;;;;;;5113668;28;20168;-59
2022/06/07 03:46:22;;;;;;;2.42;1.90;;;12.10;99.90;;;;;;5095731;28;20256;-59
2022/06/07 03:48:48;;;;;;;1.70;1.60;;;12.10;99.90;;;;;;5113622;28;20165;-59
2022/06/07 03:51:16;;;;;;;1.70;1.60;;;12.10;99.90;;;;;;5113801;28;20209;-59
2022/06/07 03:53:43;;;;;;;2.47;2.17;;;12.10;99.90;;;;;;5113642;28;20188;-59
2022/06/07 03:56:09;;;;;;;2.92;1.50;;;12.00;99.90;;;;;;5113649;28;20214;-59
2022/06/07 03:58:37;;;;;;;2.05;1.88;;;12.10;99.90;;;;;;5113537;28;20226;-59
2022/06/07 04:01:03;;;;;;;2.10;1.90;;;12.10;99.90;;;;;;5113410;28;20291;-60
2022/06/07 04:03:29;;;;;;;2.17;1.98;;;12.00;99.90;;;;;;5095074;28;20276;-59
2022/06/07 04:05:55;;;;;;;2.20;2.00;;;11.90;99.90;;;;;;5113176;28;20181;-59
2022/06/07 04:08:21;;;;;;;1.90;1.70;;;12.00;99.90;;;;;;5113568;28;20302;-59
2022/06/07 04:10:56;;;;;;;2.30;2.10;;;12.00;99.90;;;;;;5095699;28;20184;-59
2022/06/07 04:13:24;;;;;;;1.98;1.88;;;12.00;99.90;;;;;;5113389;28;20256;-59
2022/06/07 04:15:50;;;;;;;2.30;2.10;;;12.00;99.90;;;;;;5095045;28;20652;-59
2022/06/07 04:18:16;;;;;;;2.13;1.92;;;12.00;99.90;;;;;;5095188;28;20170;-59
2022/06/07 04:20:42;;;;;;;2.13;1.92;;;12.00;99.90;;;;;;5113385;28;20207;-59
2022/06/07 04:23:12;;;;;;;3.20;2.08;;;12.10;99.90;;;;;;5113405;28;20224;-59
2022/06/07 04:25:39;;;;;;;3.30;1.85;;;12.10;99.90;;;;;;5113182;28;20173;-59
2022/06/07 04:28:05;;;;;;;2.05;1.65;;;12.10;99.90;;;;;;5095064;28;20642;-59
2022/06/07 04:30:31;;;;;;;2.08;1.88;;;12.10;99.90;;;;;;5112092;28;20189;-59
2022/06/07 04:32:57;;;;;;;2.38;2.17;;;12.10;99.90;;;;;;5113375;28;20227;-59
2022/06/07 04:35:23;;;;;;;2.25;1.90;;;12.10;99.90;;;;;;5094935;28;20174;-59
2022/06/07 04:37:49;;;;;;;2.15;1.95;;;12.10;99.90;;;;;;5113250;28;20184;-59
2022/06/07 04:40:15;;;;;;;2.08;1.73;;;12.10;99.90;;;;;;5115656;28;20201;-59
2022/06/07 04:42:43;;;;;;;2.28;2.08;;;12.10;99.90;;;;;;5098959;28;20226;-59
2022/06/07 04:45:14;;;;;;;2.53;2.13;;;12.10;99.90;;;;;;5116754;28;20165;-59
2022/06/07 04:47:40;;;;;;;2.60;2.30;;;12.10;99.90;;;;;;5117100;28;20181;-59
2022/06/07 04:50:07;;;;;;;2.13;1.83;;;12.20;99.90;;;;;;5116607;28;20575;-59
2022/06/07 04:52:33;;;;;;;2.45;1.92;;;12.30;99.90;;;;;;5116723;28;20176;-59
2022/06/07 04:54:59;;;;;;;2.20;2.00;;;12.30;99.90;;;;;;5116682;28;20169;-59
2022/06/07 04:57:25;;;;;;;3.17;2.15;;;12.30;99.90;;;;;;5115692;28;20172;-59
2022/06/07 04:59:50;;;;;;;2.08;1.88;;;12.30;99.90;;;;;;5116459;28;20209;-57
2022/06/07 05:02:16;;;;;;;2.35;1.95;;;12.40;99.90;;;;;;5116776;28;20177;-56
2022/06/07 05:04:42;;;;;;;2.20;1.90;;;12.40;99.90;;;;;;5116657;28;20174;-56
2022/06/07 05:07:08;;;;;;;2.90;1.98;;;12.50;99.90;;;;;;5116393;28;20276;-57
2022/06/07 05:09:33;;;;;;;2.25;1.77;;;12.60;99.90;;;;;;5114844;28;20181;-57
2022/06/07 05:11:59;;;;;;;2.53;1.88;;;12.70;99.90;;;;;;5114272;28;20193;-57
2022/06/07 05:14:26;;;;;;;2.17;1.95;;;12.90;99.90;;;;;;5116370;28;20572;-57
2022/06/07 05:16:52;;;;;;;2.80;1.88;;;12.90;99.90;;;;;;5116734;28;20528;-57
2022/06/07 05:19:18;;;;;;;2.38;1.85;;;13.10;99.90;;;;;;5116292;28;20180;-57
2022/06/07 05:21:45;;;;;;;2.60;1.90;;;13.10;99.90;;;;;;5116449;28;20595;-57
2022/06/07 05:24:11;;;;;;;2.75;2.08;;;13.20;99.90;;;;;;5116344;28;20169;-57
2022/06/07 05:26:47;;;;;;;2.47;1.63;;;13.30;99.90;;;;;;5116262;28;20527;-57
2022/06/07 05:29:18;;;;;;;1.80;1.60;;;13.40;99.90;;;;;;5116506;28;20176;-57
2022/06/07 05:31:44;;;;;;;2.45;2.25;;;13.40;99.90;;;;;;5116218;28;20178;-57
2022/06/07 05:34:10;;;;;;;2.38;1.90;;;13.50;99.90;;;;;;5114665;28;20184;-57
2022/06/07 05:36:35;;;;;;;3.15;2.10;;;13.50;99.90;;;;;;5116219;28;20179;-57
2022/06/07 05:39:03;;;;;;;2.55;1.80;;;13.50;99.90;;;;;;5115858;28;20174;-59
2022/06/07 05:41:29;;;;;;;2.17;1.98;;;13.50;99.90;;;;;;5115623;28;20670;-57
2022/06/07 05:43:56;;;;;;;2.10;1.90;;;13.60;99.90;;;;;;5115867;28;20203;-57
2022/06/07 05:46:22;;;;;;;2.75;2.17;;;13.70;99.90;;;;;;5116119;28;20173;-57
2022/06/07 05:48:48;;;;;;;2.03;1.90;;;13.80;99.90;;;;;;5115102;28;20181;-57
2022/06/07 05:51:14;;;;;;;1.92;1.80;;;13.80;99.90;;;;;;5114178;28;20169;-57
2022/06/07 05:53:41;;;;;;;2.03;1.83;;;13.90;99.90;;;;;;5114326;28;20209;-57
2022/06/07 05:56:12;;;;;;;1.88;1.65;;;14.00;99.90;;;;;;5115484;28;20622;-57
2022/06/07 05:58:38;;;;;;;1.98;1.83;;;14.20;99.90;;;;;;5115403;28;20570;-57
2022/06/07 06:01:05;;;;;;;2.63;1.70;;;14.30;99.90;;;;;;5115718;28;20296;-57
2022/06/07 06:03:31;;;;;;;2.17;1.60;;;14.50;99.90;;;;;;5114337;28;20202;-57
2022/06/07 06:05:57;;;;;;;2.08;1.70;;;14.50;99.90;;;;;;5115077;28;20189;-57
2022/06/07 06:11:17;;;;;;;1.60;1.50;;;14.70;99.90;;;;;;5115723;28;20271;-58
2022/06/07 06:13:42;;;;;;;2.55;1.50;;;15.10;99.90;;;;;;5115230;28;20165;-57
2022/06/07 06:16:11;;;;;;;2.30;1.95;;;15.20;99.90;;;;;;5115193;28;20176;-57
2022/06/07 06:18:38;;;;;;;2.90;1.50;;;15.20;99.90;;;;;;5113837;28;20169;-58
2022/06/07 06:21:04;;;;;;;1.73;1.40;;;15.20;99.90;;;;;;5115047;28;20204;-58
2022/06/07 06:23:30;;;;;;;2.53;1.40;;;15.30;99.90;;;;;;5115125;28;20189;-58
2022/06/07 06:25:56;;;;;;;2.17;1.70;;;15.20;99.90;;;;;;5115366;28;20173;-57
2022/06/07 06:28:22;;;;;;;1.77;1.55;;;15.30;99.90;;;;;;5114947;28;20265;-57
2022/06/07 06:30:48;;;;;;;1.05;0.98;;;15.20;99.90;;;;;;5114973;28;20169;-58
2022/06/07 06:33:15;;;;;;;2.17;1.50;;;15.30;99.90;;;;;;5113442;28;20653;-58
2022/06/07 06:35:52;;;;;;;1.40;1.30;;;15.40;99.90;;;;;;5113434;28;20175;-58
2022/06/07 06:38:20;;;;;;;2.60;1.50;;;15.50;99.90;;;;;;5114963;28;20188;-57
2022/06/07 06:40:46;;;;;;;1.63;1.52;;;15.60;99.90;;;;;;5114621;28;20204;-57
2022/06/07 06:43:16;;;;;;;1.60;1.50;;;15.60;99.90;;;;;;5113537;28;20177;-57
2022/06/07 06:45:43;;;;;;;2.53;1.45;;;15.60;99.90;;;;;;5113217;28;20265;-58
2022/06/07 06:48:12;;;;;;;1.50;1.40;;;15.80;99.90;;;;;;5114708;28;20173;-58
2022/06/07 06:50:38;;;;;;;1.50;1.40;;;15.80;99.90;;;;;;5114620;28;20223;-57
2022/06/07 06:53:04;;;;;;;1.60;1.38;;;15.80;99.90;;;;;;5114501;28;20246;-58
2022/06/07 06:55:31;;;;;;;1.98;1.27;;;15.80;99.90;;;;;;5114518;28;20166;-58
2022/06/07 06:57:57;;;;;;;2.15;1.33;;;15.90;99.90;;;;;;5114356;28;20169;-57
2022/06/07 07:00:23;;;;;;;1.13;1.00;;;15.90;99.90;;;;;;5112682;28;20229;-57
2022/06/07 07:02:49;;;;;;;1.50;1.40;;;16.00;99.90;;;;;;5113022;28;20207;-57
2022/06/07 07:05:17;;;;;;;1.45;1.33;;;16.00;99.90;;;;;;5112878;28;20172;-58
2022/06/07 07:07:45;;;;;;;1.80;1.35;;;16.00;99.90;;;;;;5112857;28;20236;-57
2022/06/07 07:10:11;;;;;;;1.73;1.58;;;16.10;99.90;;;;;;5112893;28;20185;-57
2022/06/07 07:12:37;;;;;;;1.88;1.35;;;16.00;99.90;;;;;;5114047;28;20260;-57
2022/06/07 07:15:05;;;;;;;1.80;1.48;;;16.10;99.90;;;;;;5095710;28;20176;-58
2022/06/07 07:17:30;;;;;;;1.35;1.23;;;16.20;99.90;;;;;;5112852;28;20191;-57
2022/06/07 07:19:56;;;;;;;1.88;1.60;;;16.30;99.90;;;;;;5112935;28;20717;-57
2022/06/07 07:22:22;;;;;;;1.15;1.13;;;16.30;99.90;;;;;;5114030;28;20208;-58
2022/06/07 07:24:49;;;;;;;1.83;1.45;;;16.50;99.90;;;;;;5114007;28;20519;-57
2022/06/07 07:27:16;;;;;;;2.85;1.75;;;16.50;99.90;;;;;;5113878;28;20176;-58
2022/06/07 07:29:42;;;;;;;1.45;1.35;;;16.50;99.90;;;;;;5113798;28;20200;-57
2022/06/07 07:32:08;;;;;;;1.33;1.23;;;16.60;99.90;;;;;;5114048;28;20214;-58
2022/06/07 07:34:33;;;;;;;2.58;1.38;;;16.80;99.90;;;;;;5112614;28;20173;-57
2022/06/07 07:36:59;;;;;;;1.40;1.30;;;16.90;99.90;;;;;;5113879;28;20242;-58
2022/06/07 07:39:26;;;;;;;2.70;1.70;;;17.00;99.90;;;;;;5113586;28;20568;-57
2022/06/07 07:41:53;;;;;;;2.42;1.42;;;16.90;99.90;;;;;;5112434;28;20185;-58
2022/06/07 07:44:21;;;;;;;1.40;1.30;;;16.90;99.90;;;;;;5113530;28;20170;-57
2022/06/07 07:46:48;;;;;;;2.83;1.52;;;16.90;99.90;;;;;;5113841;28;20169;-58
2022/06/07 07:49:15;;;;;;;1.38;1.25;;;16.90;99.90;;;;;;5113735;28;20169;-58
2022/06/07 07:51:44;;;;;;;1.27;1.17;;;16.80;99.90;;;;;;5113793;28;20225;-58
2022/06/07 07:54:14;;;;;;;1.25;1.00;;;16.90;99.90;;;;;;5113569;28;20622;-58
2022/06/07 07:56:40;;;;;;;1.17;1.00;;;17.00;99.90;;;;;;5113553;28;20161;-58
2022/06/07 07:59:07;;;;;;;1.17;1.00;;;17.00;99.90;;;;;;5113841;28;20567;-58
2022/06/07 08:01:33;;;;;;;2.05;1.10;;;17.00;99.90;;;;;;5113590;28;20201;-58
2022/06/07 08:04:00;;;;;;;2.05;1.10;;;17.00;99.90;;;;;;5113621;28;20184;-58
2022/06/07 08:06:28;;;;;;;1.10;1.00;;;17.00;99.90;;;;;;5113639;28;20217;-61
2022/06/07 08:08:57;;;;;;;1.15;1.00;;;16.90;99.90;;;;;;5113495;28;20213;-58
2022/06/07 08:11:27;;;;;;;1.98;1.20;;;16.90;99.90;;;;;;5113330;28;20176;-58
2022/06/07 08:13:54;;;;;;;1.13;1.02;;;17.00;99.90;;;;;;5116745;28;20162;-58
2022/06/07 08:16:20;;;;;;;1.38;1.00;;;17.00;99.90;;;;;;5117623;28;20177;-57
2022/06/07 08:18:46;;;;;;;1.20;1.13;;;17.20;99.90;;;;;;5117700;28;20526;-58
2022/06/07 08:21:20;;;;;;;0.80;0.70;;;17.20;99.90;;;;;;5117397;28;20213;-58
2022/06/07 08:23:47;;;;;;;1.77;1.10;;;17.20;99.90;;;;;;5117280;28;20169;-58
2022/06/07 08:26:13;;;;;;;2.35;1.17;;;17.40;99.90;;;;;;5116293;28;20630;-58
2022/06/07 08:28:40;;;;;;;0.90;0.90;;;17.50;99.90;;;;;;5117516;28;20166;-58
2022/06/07 08:31:14;;;;;;;0.80;0.80;;;17.60;99.90;;;;;;5117386;28;20276;-60
2022/06/07 08:39:08;;;;;;;1.25;0.80;;;18.00;99.90;;;;;;5117374;28;20192;-58
2022/06/07 08:41:44;;;;;;;1.55;1.08;;;18.10;99.90;;;;;;5116971;28;20273;-58
2022/06/07 08:44:19;;;;;;;1.58;0.90;;;18.20;99.90;;;;;;5117018;28;20165;-57
2022/06/07 08:46:45;;;;;;;0.70;0.70;;;18.10;99.90;;;;;;5116897;28;20165;-58
2022/06/07 08:49:12;;;;;;;0.88;0.77;;;18.30;99.90;;;;;;5116904;28;20161;-58
2022/06/07 08:52:09;;;;;;;1.25;0.90;;;18.30;99.90;;;;;;5116822;28;20166;-58
2022/06/07 08:54:38;;;;;;;1.20;1.10;;;18.30;99.90;;;;;;5092733;28;20269;-58
2022/06/07 08:57:17;;;;;;;1.70;0.85;;;18.10;99.90;;;;;;5116704;28;20169;-58
2022/06/07 08:59:46;;;;;;;1.58;1.00;;;18.00;99.90;;;;;;5116842;28;20193;-58
2022/06/07 09:02:23;;;;;;;2.17;1.15;;;18.00;99.90;;;;;;5116529;28;20216;-58
2022/06/07 09:04:49;;;;;;;1.45;1.23;;;18.00;99.90;;;;;;5116615;28;20225;-58
2022/06/07 09:07:19;;;;;;;1.40;1.20;;;17.80;99.90;;;;;;5116365;28;20272;-59
2022/06/07 09:12:39;;;;;;;1.95;1.45;;;17.80;99.90;;;;;;5116742;28;20242;-58
2022/06/07 09:15:17;;;;;;;1.17;1.00;;;18.10;99.90;;;;;;5116451;28;20164;-58
2022/06/07 09:17:55;;;;;;;1.42;1.25;;;18.50;99.90;;;;;;5116334;28;20172;-58
2022/06/07 09:20:32;;;;;;;1.50;1.15;;;18.80;99.90;;;;;;5116459;28;20599;-58
2022/06/07 09:23:01;;;;;;;1.17;1.00;;;19.00;99.90;;;;;;5116380;28;20638;-58
2022/06/07 09:25:48;;;;;;;0.98;0.93;;;18.80;99.90;;;;;;5114879;27;20165;-59
2022/06/07 09:28:26;;;;;;;1.35;1.25;;;18.90;99.90;;;;;;5116116;28;20222;-58
2022/06/07 09:31:08;;;;;;;1.00;0.95;;;18.90;99.90;;;;;;5115989;28;20702;-58
2022/06/07 09:33:48;;;;;;;1.42;1.05;;;19.10;99.90;;;;;;5116153;28;20177;-58
2022/06/07 09:36:32;;;;;;;1.00;0.93;;;19.20;99.90;;;;;;5116195;28;20177;-58
2022/06/07 09:39:07;;;;;;;1.63;1.17;;;19.20;99.90;;;;;;5115918;28;20173;-58
2022/06/07 09:41:40;;;;;;;2.05;1.00;;;19.10;99.90;;;;;;5115941;28;20201;-58
2022/06/07 09:44:31;;;;;;;1.88;1.10;;;19.00;99.90;;;;;;5116058;28;20173;-58
2022/06/07 09:47:05;;;;;;;1.00;0.90;;;19.00;99.90;;;;;;5115807;28;20256;-58
2022/06/07 09:49:34;;;;;;;1.23;1.13;;;18.90;99.90;;;;;;5115967;28;20169;-58
2022/06/07 09:52:24;;;;;;;1.10;1.00;;;18.80;99.90;;;;;;5115793;28;20691;-58
2022/06/07 09:54:54;;;;;;;1.52;1.17;;;18.80;99.90;;;;;;5115767;28;20177;-58
2022/06/07 09:57:37;;;;;;;1.10;0.98;;;18.80;99.90;;;;;;5115622;28;20253;-58
2022/06/07 10:00:17;;;;;;;1.65;1.20;;;18.70;99.90;;;;;;5115407;28;20523;-58
2022/06/07 10:03:04;;;;;;;1.48;1.15;;;18.40;99.90;;;;;;5115723;28;20182;-58
2022/06/07 10:05:39;;;;;;;1.08;1.08;;;18.20;99.90;;;;;;5115261;28;20181;-58
2022/06/07 10:08:14;;;;;;;1.27;1.17;;;18.30;99.90;;;;;;5115245;28;20542;-59
2022/06/07 10:10:52;;;;;;;1.48;1.38;;;18.30;99.90;;;;;;5115435;28;20224;-58
2022/06/07 10:13:39;;;;;;;1.90;1.80;;;18.30;99.90;;;;;;5115190;28;20629;-57
2022/06/07 10:16:24;;;;;;;1.75;1.45;;;18.40;99.90;;;;;;5115481;28;20173;-58
2022/06/07 10:18:55;;;;;;;3.03;1.70;;;18.40;99.90;;;;;;5115669;28;20173;-58
2022/06/07 10:21:43;;;;;;;1.83;1.73;;;18.60;99.90;;;;;;5115083;28;20268;-58
2022/06/07 10:24:17;;;;;;;2.10;1.90;;;18.70;99.90;;;;;;5115005;28;20169;-58
2022/06/07 10:27:07;;;;;;;2.40;1.80;;;18.90;99.90;;;;;;5114884;28;20211;-58
2022/06/07 10:30:04;;;;;;;2.17;1.98;;;19.20;99.90;;;;;;5115118;28;20169;-58
2022/06/07 10:32:44;;;;;;;1.95;1.85;;;19.50;99.90;;;;;;5115023;28;20173;-58
2022/06/07 10:35:17;;;;;;;2.05;1.85;;;19.40;99.90;;;;;;5114254;28;20161;-58
2022/06/07 10:38:09;;;;;;;2.20;1.73;;;19.60;99.90;;;;;;5115255;28;20535;-58
2022/06/07 10:41:13;;;;;;;1.67;1.58;;;19.70;99.90;;;;;;5106031;28;20213;-58
2022/06/07 10:44:00;;;;;;;1.50;1.40;;;19.90;99.90;;;;;;5082959;28;20224;-58
2022/06/07 10:46:28;;;;;;;2.90;1.70;;;19.90;99.90;;;;;;5114825;28;20180;-58
2022/06/07 10:49:14;;;;;;;1.52;1.42;;;19.90;99.90;;;;;;5114536;28;20169;-58
2022/06/07 10:54:46;;;;;;;1.40;1.23;;;19.80;99.90;;;;;;5114741;28;20184;-56
2022/06/07 10:57:21;;;;;;;1.55;1.20;;;19.40;99.90;;;;;;5114484;28;20174;-58
2022/06/07 10:59:50;;;;;;;1.92;1.30;;;19.20;99.90;;;;;;5114304;28;20185;-58
2022/06/07 11:02:26;;;;;;;1.00;1.00;;;18.90;99.90;;;;;;5113242;28;20296;-58
2022/06/07 11:10:39;;;;;;;0.98;0.98;;;19.20;99.90;;;;;;5114427;28;20193;-58
2022/06/07 11:13:48;;;;;;;1.10;1.00;;;19.10;99.90;;;;;;5113103;28;20166;-58
2022/06/07 11:16:14;;;;;;;1.52;1.20;;;19.30;99.90;;;;;;5114081;28;20169;-58
2022/06/07 11:18:42;;;;;;;1.42;1.13;;;19.20;99.90;;;;;;5114031;28;20221;-59
2022/06/07 11:21:08;;;;;;;1.52;1.42;;;19.20;99.90;;;;;;5114138;28;20276;-58
2022/06/07 11:23:43;;;;;;;1.10;1.00;;;19.20;99.90;;;;;;5114045;28;20177;-58
2022/06/07 11:26:17;;;;;;;1.30;1.20;;;19.30;99.90;;;;;;5114117;28;20213;-58
2022/06/07 11:28:49;;;;;;;1.33;1.17;;;19.50;99.90;;;;;;5113903;28;20260;-58
2022/06/07 11:31:21;;;;;;;1.30;1.00;;;19.40;99.90;;;;;;5113834;28;20650;-59
2022/06/07 11:33:53;;;;;;;1.27;1.10;;;19.70;99.90;;;;;;5113785;28;20170;-58
2022/06/07 11:36:25;;;;;;;1.55;1.15;;;19.90;99.90;;;;;;5113783;28;20521;-58
2022/06/07 11:38:56;;;;;;;1.05;1.00;;;19.90;99.90;;;;;;5113874;28;20165;-59
2022/06/07 11:41:36;;;;;;;1.15;1.05;;;20.00;99.90;;;;;;5112432;28;20296;-58
2022/06/07 11:44:28;;;;;;;0.98;0.98;;;19.90;99.90;;;;;;5113752;28;20169;-60
2022/06/07 11:46:57;;;;;;;0.80;0.77;;;19.60;99.90;;;;;;5113250;28;20170;-58
2022/06/07 11:49:29;;;;;;;0.90;0.90;;;19.40;99.90;;;;;;5113510;28;20181;-58
2022/06/07 11:52:12;;;;;;;0.90;0.90;;;19.40;99.90;;;;;;5113777;28;20169;-58
2022/06/07 11:54:48;;;;;;;1.40;1.30;;;19.60;99.90;;;;;;5114051;28;20184;-61
2022/06/07 11:57:37;;;;;;;0.80;0.80;;;19.40;99.90;;;;;;5113610;28;20638;-58
2022/06/07 12:00:21;;;;;;;0.68;0.65;;;19.50;99.90;;;;;;5112271;28;20205;-60
2022/06/07 12:03:10;;;;;;;0.82;0.70;;;19.50;99.90;;;;;;5113503;28;20180;-58
2022/06/07 12:05:35;;;;;;;0.95;0.63;;;19.20;99.90;;;;;;5133878;27;20254;-58
2022/06/07 12:08:30;;;;;;;1.13;0.80;;;19.20;99.90;;;;;;5113805;28;20177;-58
2022/06/07 12:11:04;;;;;;;0.50;0.50;;;18.90;99.90;;;;;;5113507;28;20175;-58
2022/06/07 12:13:54;;;;;;;1.15;0.80;;;18.90;99.90;;;;;;5113562;28;20534;-58
2022/06/07 12:16:24;;;;;;;1.13;1.00;;;18.70;99.90;;;;;;5112495;28;20218;-58
2022/06/07 12:18:54;;;;;;;0.80;0.80;;;18.60;99.90;;;;;;5113426;28;20631;-58
2022/06/07 12:21:22;;;;;;;0.85;0.70;;;18.50;99.90;;;;;;5113310;28;20280;-58
2022/06/07 12:24:00;;;;;;;1.10;1.00;;;18.50;99.90;;;;;;5113496;28;20264;-58
2022/06/07 12:26:31;;;;;;;1.73;1.27;;;18.50;99.90;;;;;;5113453;28;20183;-58
2022/06/07 12:28:57;;;;;;;1.73;0.68;;;18.50;99.90;;;;;;5113350;28;20630;-58
2022/06/07 12:31:27;;;;;;;0.95;0.85;;;18.60;99.90;;;;;;5113282;28;20173;-58
2022/06/07 12:33:56;;;;;;;0.77;0.77;;;18.70;99.90;;;;;;5113242;28;20166;-58
2022/06/07 12:36:31;;;;;;;1.02;0.93;;;18.90;99.90;;;;;;5111989;28;20169;-58
2022/06/07 12:39:17;;;;;;;0.70;0.70;;;18.80;99.90;;;;;;5113348;28;20176;-58
2022/06/07 12:41:56;;;;;;;0.77;0.77;;;18.80;99.90;;;;;;5113015;28;20201;-58
2022/06/07 12:44:27;;;;;;;0.55;0.55;;;18.90;99.90;;;;;;5113450;28;20212;-58
2022/06/07 12:46:54;;;;;;;0.80;0.80;;;18.80;99.90;;;;;;5113345;28;20201;-59
2022/06/07 12:49:26;;;;;;;1.95;0.90;;;18.80;99.90;;;;;;5111984;28;20195;-58
2022/06/07 12:51:58;;;;;;;0.75;0.75;;;18.90;99.90;;;;;;5113136;28;20162;-58
2022/06/07 12:54:24;;;;;;;2.55;1.00;;;18.90;99.90;;;;;;5113002;28;20184;-58
2022/06/07 12:56:52;;;;;;;1.17;0.60;;;18.80;99.90;;;;;;5111588;28;20181;-61
2022/06/07 12:59:35;;;;;;;1.15;0.80;;;18.80;99.90;;;;;;5114879;28;20752;-58
2022/06/07 13:02:22;;;;;;;1.80;0.90;;;18.80;99.90;;;;;;5115512;28;20519;-58
2022/06/07 13:04:51;;;;;;;0.88;0.70;;;18.50;99.90;;;;;;5116119;28;20229;-58
2022/06/07 13:07:26;;;;;;;0.70;0.70;;;18.60;99.90;;;;;;5116809;28;20526;-58
2022/06/07 13:09:57;;;;;;;0.85;0.85;;;18.40;99.90;;;;;;5116671;28;20172;-59
2022/06/07 13:12:30;;;;;;;0.60;0.60;;;18.40;99.90;;;;;;5116744;28;20230;-58
2022/06/07 13:14:58;;;;;;;1.20;1.10;;;18.20;99.90;;;;;;5115215;28;20575;-58
2022/06/07 13:17:34;;;;;;;1.00;0.90;;;18.20;99.90;;;;;;5116409;28;20531;-58
2022/06/07 13:20:02;;;;;;;1.95;1.10;;;18.20;99.90;;;;;;5116391;28;20204;-58
2022/06/07 13:22:32;;;;;;;0.63;0.63;;;18.20;99.90;;;;;;5116717;28;20256;-58
2022/06/07 13:25:24;;;;;;;0.63;0.63;;;18.30;99.90;;;;;;5115162;28;20177;-58
2022/06/07 13:28:00;;;;;;;1.00;0.90;;;18.40;99.90;;;;;;5116089;28;20218;-58
2022/06/07 13:30:40;;;;;;;4.70;2.92;;;18.40;99.90;;;;;;5116382;28;20263;-58